sensor_id;sensor_type;location;lat;lon;timestamp;temperature;humidity
8709;DHT22;4391;48.678;9.280;2022-08-19T00:00:21;20.30;1.00
8709;DHT22;4391;48.678;9.280;2022-08-19T00:02:49;20.10;1.00
8709;DHT22;4391;48.678;9.280;2022-08-19T00:05:16;19.90;1.00
8709;DHT22;4391;48.678;9.280;2022-08-19T00:07:43;19.80;1.00
8709;DHT22;4391;48.678;9.280;2022-08-19T00:10:13;19.60;1.00
8709;DHT22;4391;48.678;9.280;2022-08-19T00:12:40;19.50;7.80
8709;DHT22;4391;48.678;9.280;2022-08-19T00:15:12;19.40;32.50
8709;DHT22;4391;48.678;9.280;2022-08-19T00:17:40;19.30;56.70
8709;DHT22;4391;48.678;9.280;2022-08-19T00:20:09;19.10;51.70
8709;DHT22;4391;48.678;9.280;2022-08-19T00:22:36;19.00;62.20
8709;DHT22;4391;48.678;9.280;2022-08-19T00:25:03;18.90;83.70
8709;DHT22;4391;48.678;9.280;2022-08-19T00:27:32;18.80;94.00
8709;DHT22;4391;48.678;9.280;2022-08-19T00:29:58;18.70;97.90
8709;DHT22;4391;48.678;9.280;2022-08-19T00:32:25;18.70;99.90
8709;DHT22;4391;48.678;9.280;2022-08-19T00:34:52;18.70;99.90
8709;DHT22;4391;48.678;9.280;2022-08-19T00:37:19;18.70;99.90
8709;DHT22;4391;48.678;9.280;2022-08-19T00:39:48;18.60;99.90
8709;DHT22;4391;48.678;9.280;2022-08-19T00:42:14;18.60;99.90
8709;DHT22;4391;48.678;9.280;2022-08-19T00:44:43;18.60;99.90
8709;DHT22;4391;48.678;9.280;2022-08-19T00:47:10;18.60;99.90
8709;DHT22;4391;48.678;9.280;2022-08-19T00:49:40;18.60;99.90
8709;DHT22;4391;48.678;9.280;2022-08-19T00:52:12;18.50;99.90
8709;DHT22;4391;48.678;9.280;2022-08-19T00:54:41;18.50;99.90
8709;DHT22;4391;48.678;9.280;2022-08-19T00:57:10;18.50;99.90
8709;DHT22;4391;48.678;9.280;2022-08-19T00:59:39;18.50;99.90
8709;DHT22;4391;48.678;9.280;2022-08-19T01:02:08;18.50;99.90
8709;DHT22;4391;48.678;9.280;2022-08-19T01:04:35;18.40;99.90
8709;DHT22;4391;48.678;9.280;2022-08-19T01:07:02;18.40;99.90
8709;DHT22;4391;48.678;9.280;2022-08-19T01:09:29;18.30;99.90
8709;DHT22;4391;48.678;9.280;2022-08-19T01:11:56;18.30;99.90
8709;DHT22;4391;48.678;9.280;2022-08-19T01:14:24;18.30;99.90
8709;DHT22;4391;48.678;9.280;2022-08-19T01:16:52;18.30;99.90
8709;DHT22;4391;48.678;9.280;2022-08-19T01:19:26;18.30;99.90
8709;DHT22;4391;48.678;9.280;2022-08-19T01:21:58;18.30;99.90
8709;DHT22;4391;48.678;9.280;2022-08-19T01:24:28;18.30;99.90
8709;DHT22;4391;48.678;9.280;2022-08-19T01:26:56;18.30;99.90
8709;DHT22;4391;48.678;9.280;2022-08-19T01:29:23;18.30;99.90
8709;DHT22;4391;48.678;9.280;2022-08-19T01:31:50;18.30;99.90
8709;DHT22;4391;48.678;9.280;2022-08-19T01:34:18;18.30;99.90
8709;DHT22;4391;48.678;9.280;2022-08-19T01:36:46;18.30;99.90
8709;DHT22;4391;48.678;9.280;2022-08-19T01:39:16;18.30;99.90
8709;DHT22;4391;48.678;9.280;2022-08-19T01:41:46;18.20;99.90
8709;DHT22;4391;48.678;9.280;2022-08-19T01:44:13;18.20;99.90
8709;DHT22;4391;48.678;9.280;2022-08-19T01:46:41;18.20;99.90
8709;DHT22;4391;48.678;9.280;2022-08-19T01:49:09;18.20;99.90
8709;DHT22;4391;48.678;9.280;2022-08-19T01:51:36;18.20;99.90
8709;DHT22;4391;48.678;9.280;2022-08-19T01:54:03;18.20;99.90
8709;DHT22;4391;48.678;9.280;2022-08-19T01:56:30;18.20;99.90
8709;DHT22;4391;48.678;9.280;2022-08-19T01:59:00;18.20;99.90
8709;DHT22;4391;48.678;9.280;2022-08-19T02:01:28;18.20;99.90
8709;DHT22;4391;48.678;9.280;2022-08-19T02:03:57;18.20;99.90
8709;DHT22;4391;48.678;9.280;2022-08-19T02:06:26;18.20;99.90
8709;DHT22;4391;48.678;9.280;2022-08-19T02:08:53;18.20;99.90
8709;DHT22;4391;48.678;9.280;2022-08-19T02:11:23;18.20;99.90
8709;DHT22;4391;48.678;9.280;2022-08-19T02:13:52;18.20;99.90
8709;DHT22;4391;48.678;9.280;2022-08-19T02:16:21;18.20;99.90
8709;DHT22;4391;48.678;9.280;2022-08-19T02:18:48;18.20;99.90
8709;DHT22;4391;48.678;9.280;2022-08-19T02:21:15;18.20;99.90
8709;DHT22;4391;48.678;9.280;2022-08-19T02:23:43;18.10;99.90
8709;DHT22;4391;48.678;9.280;2022-08-19T02:26:11;18.10;99.90
8709;DHT22;4391;48.678;9.280;2022-08-19T02:28:39;18.10;99.90
8709;DHT22;4391;48.678;9.280;2022-08-19T02:31:09;18.10;99.90
8709;DHT22;4391;48.678;9.280;2022-08-19T02:33:37;18.10;99.90
8709;DHT22;4391;48.678;9.280;2022-08-19T02:36:05;18.10;99.90
8709;DHT22;4391;48.678;9.280;2022-08-19T02:38:32;18.10;99.90
8709;DHT22;4391;48.678;9.280;2022-08-19T02:41:00;18.10;99.90
8709;DHT22;4391;48.678;9.280;2022-08-19T02:43:29;18.10;99.90
8709;DHT22;4391;48.678;9.280;2022-08-19T02:45:56;18.10;99.90
8709;DHT22;4391;48.678;9.280;2022-08-19T02:48:24;18.20;99.90
8709;DHT22;4391;48.678;9.280;2022-08-19T02:50:53;18.10;99.90
8709;DHT22;4391;48.678;9.280;2022-08-19T02:53:21;18.10;99.90
8709;DHT22;4391;48.678;9.280;2022-08-19T02:55:49;18.10;99.90
8709;DHT22;4391;48.678;9.280;2022-08-19T02:58:20;18.20;99.90
8709;DHT22;4391;48.678;9.280;2022-08-19T03:00:49;18.10;99.90
8709;DHT22;4391;48.678;9.280;2022-08-19T03:03:16;18.20;99.90
8709;DHT22;4391;48.678;9.280;2022-08-19T03:05:44;18.20;99.90
8709;DHT22;4391;48.678;9.280;2022-08-19T03:08:13;18.30;98.30
8709;DHT22;4391;48.678;9.280;2022-08-19T03:10:41;18.30;99.90
8709;DHT22;4391;48.678;9.280;2022-08-19T03:13:11;18.30;99.90
8709;DHT22;4391;48.678;9.280;2022-08-19T03:15:40;18.40;87.50
8709;DHT22;4391;48.678;9.280;2022-08-19T03:18:07;18.50;77.80
8709;DHT22;4391;48.678;9.280;2022-08-19T03:20:40;18.50;84.00
8709;DHT22;4391;48.678;9.280;2022-08-19T03:23:06;18.60;92.90
8709;DHT22;4391;48.678;9.280;2022-08-19T03:25:38;18.60;87.20
8709;DHT22;4391;48.678;9.280;2022-08-19T03:28:07;18.50;84.40
8709;DHT22;4391;48.678;9.280;2022-08-19T03:30:34;18.60;90.30
8709;DHT22;4391;48.678;9.280;2022-08-19T03:33:01;18.50;92.50
8709;DHT22;4391;48.678;9.280;2022-08-19T03:35:28;18.60;79.90
8709;DHT22;4391;48.678;9.280;2022-08-19T03:37:55;18.50;82.50
8709;DHT22;4391;48.678;9.280;2022-08-19T03:40:22;18.50;66.40
8709;DHT22;4391;48.678;9.280;2022-08-19T03:42:50;18.50;68.60
8709;DHT22;4391;48.678;9.280;2022-08-19T03:45:17;18.50;61.40
8709;DHT22;4391;48.678;9.280;2022-08-19T03:47:44;18.50;78.70
8709;DHT22;4391;48.678;9.280;2022-08-19T03:50:11;18.50;75.00
8709;DHT22;4391;48.678;9.280;2022-08-19T03:52:38;18.40;70.90
8709;DHT22;4391;48.678;9.280;2022-08-19T03:55:06;18.50;79.10
8709;DHT22;4391;48.678;9.280;2022-08-19T03:57:33;18.50;82.30
8709;DHT22;4391;48.678;9.280;2022-08-19T04:00:04;18.50;87.00
8709;DHT22;4391;48.678;9.280;2022-08-19T04:02:32;18.50;87.40
8709;DHT22;4391;48.678;9.280;2022-08-19T04:04:58;18.50;72.70
8709;DHT22;4391;48.678;9.280;2022-08-19T04:07:25;18.40;90.40
8709;DHT22;4391;48.678;9.280;2022-08-19T04:09:52;18.40;91.10
8709;DHT22;4391;48.678;9.280;2022-08-19T04:12:19;18.40;92.00
8709;DHT22;4391;48.678;9.280;2022-08-19T04:14:46;18.40;96.50
8709;DHT22;4391;48.678;9.280;2022-08-19T04:17:14;18.40;90.90
8709;DHT22;4391;48.678;9.280;2022-08-19T04:19:41;18.50;94.60
8709;DHT22;4391;48.678;9.280;2022-08-19T04:22:08;18.40;92.50
8709;DHT22;4391;48.678;9.280;2022-08-19T04:24:36;18.40;96.00
8709;DHT22;4391;48.678;9.280;2022-08-19T04:27:03;18.40;91.70
8709;DHT22;4391;48.678;9.280;2022-08-19T04:29:32;18.40;92.10
8709;DHT22;4391;48.678;9.280;2022-08-19T04:31:59;18.50;58.40
8709;DHT22;4391;48.678;9.280;2022-08-19T04:34:28;18.50;47.80
8709;DHT22;4391;48.678;9.280;2022-08-19T04:36:56;18.50;47.00
8709;DHT22;4391;48.678;9.280;2022-08-19T04:39:26;18.60;33.10
8709;DHT22;4391;48.678;9.280;2022-08-19T04:42:14;18.60;38.00
8709;DHT22;4391;48.678;9.280;2022-08-19T04:44:59;18.70;34.70
8709;DHT22;4391;48.678;9.280;2022-08-19T04:47:26;18.70;17.50
8709;DHT22;4391;48.678;9.280;2022-08-19T04:49:54;18.80;9.70
8709;DHT22;4391;48.678;9.280;2022-08-19T04:52:21;18.80;15.00
8709;DHT22;4391;48.678;9.280;2022-08-19T04:54:48;18.80;17.00
8709;DHT22;4391;48.678;9.280;2022-08-19T04:57:14;18.80;15.00
8709;DHT22;4391;48.678;9.280;2022-08-19T04:59:41;18.90;1.00
8709;DHT22;4391;48.678;9.280;2022-08-19T05:02:09;18.90;1.00
8709;DHT22;4391;48.678;9.280;2022-08-19T05:04:37;18.90;1.00
8709;DHT22;4391;48.678;9.280;2022-08-19T05:07:07;18.90;1.00
8709;DHT22;4391;48.678;9.280;2022-08-19T05:09:34;19.00;4.30
8709;DHT22;4391;48.678;9.280;2022-08-19T05:12:01;19.00;1.00
8709;DHT22;4391;48.678;9.280;2022-08-19T05:14:28;19.00;1.00
8709;DHT22;4391;48.678;9.280;2022-08-19T05:16:55;19.00;1.00
8709;DHT22;4391;48.678;9.280;2022-08-19T05:19:21;19.10;1.00
8709;DHT22;4391;48.678;9.280;2022-08-19T05:22:07;19.10;1.00
8709;DHT22;4391;48.678;9.280;2022-08-19T05:24:51;19.10;1.00
8709;DHT22;4391;48.678;9.280;2022-08-19T05:27:18;19.10;1.00
8709;DHT22;4391;48.678;9.280;2022-08-19T05:29:44;19.20;1.00
8709;DHT22;4391;48.678;9.280;2022-08-19T05:32:11;19.20;1.00
8709;DHT22;4391;48.678;9.280;2022-08-19T05:34:38;19.20;1.00
8709;DHT22;4391;48.678;9.280;2022-08-19T05:37:07;19.20;1.00
8709;DHT22;4391;48.678;9.280;2022-08-19T05:39:36;19.20;1.00
8709;DHT22;4391;48.678;9.280;2022-08-19T05:42:05;19.20;1.00
8709;DHT22;4391;48.678;9.280;2022-08-19T05:44:35;19.30;1.00
8709;DHT22;4391;48.678;9.280;2022-08-19T05:47:04;19.20;1.00
8709;DHT22;4391;48.678;9.280;2022-08-19T05:49:32;19.30;1.00
8709;DHT22;4391;48.678;9.280;2022-08-19T05:52:02;19.20;1.00
8709;DHT22;4391;48.678;9.280;2022-08-19T05:54:31;19.30;1.00
8709;DHT22;4391;48.678;9.280;2022-08-19T05:56:58;19.30;1.00
8709;DHT22;4391;48.678;9.280;2022-08-19T05:59:26;19.30;1.00
8709;DHT22;4391;48.678;9.280;2022-08-19T06:01:54;19.30;1.00
8709;DHT22;4391;48.678;9.280;2022-08-19T06:04:22;19.20;13.80
8709;DHT22;4391;48.678;9.280;2022-08-19T06:06:51;19.20;27.50
8709;DHT22;4391;48.678;9.280;2022-08-19T06:09:18;19.20;43.10
8709;DHT22;4391;48.678;9.280;2022-08-19T06:11:47;19.10;39.40
8709;DHT22;4391;48.678;9.280;2022-08-19T06:14:16;19.00;37.10
8709;DHT22;4391;48.678;9.280;2022-08-19T06:16:44;18.90;58.00
8709;DHT22;4391;48.678;9.280;2022-08-19T06:19:14;18.90;68.10
8709;DHT22;4391;48.678;9.280;2022-08-19T06:21:42;18.80;65.60
8709;DHT22;4391;48.678;9.280;2022-08-19T06:24:11;18.80;86.10
8709;DHT22;4391;48.678;9.280;2022-08-19T06:26:40;18.80;64.70
8709;DHT22;4391;48.678;9.280;2022-08-19T06:29:11;18.80;87.20
8709;DHT22;4391;48.678;9.280;2022-08-19T06:31:42;18.80;71.20
8709;DHT22;4391;48.678;9.280;2022-08-19T06:34:09;18.80;84.00
8709;DHT22;4391;48.678;9.280;2022-08-19T06:36:38;18.80;82.50
8709;DHT22;4391;48.678;9.280;2022-08-19T06:39:09;18.80;89.70
8709;DHT22;4391;48.678;9.280;2022-08-19T06:41:37;18.80;72.80
8709;DHT22;4391;48.678;9.280;2022-08-19T06:44:04;18.90;69.20
8709;DHT22;4391;48.678;9.280;2022-08-19T06:46:33;19.00;66.00
8709;DHT22;4391;48.678;9.280;2022-08-19T06:49:00;18.90;54.60
8709;DHT22;4391;48.678;9.280;2022-08-19T06:51:27;19.00;47.70
8709;DHT22;4391;48.678;9.280;2022-08-19T06:53:55;19.00;58.50
8709;DHT22;4391;48.678;9.280;2022-08-19T06:56:23;19.10;64.20
8709;DHT22;4391;48.678;9.280;2022-08-19T06:58:56;19.10;48.30
8709;DHT22;4391;48.678;9.280;2022-08-19T07:01:22;19.10;46.00
8709;DHT22;4391;48.678;9.280;2022-08-19T07:03:50;19.10;50.20
8709;DHT22;4391;48.678;9.280;2022-08-19T07:06:18;19.10;65.10
8709;DHT22;4391;48.678;9.280;2022-08-19T07:08:47;19.10;51.00
8709;DHT22;4391;48.678;9.280;2022-08-19T07:11:17;19.20;41.50
8709;DHT22;4391;48.678;9.280;2022-08-19T07:13:45;19.20;43.70
8709;DHT22;4391;48.678;9.280;2022-08-19T07:16:16;19.10;77.10
8709;DHT22;4391;48.678;9.280;2022-08-19T07:18:44;19.00;80.90
8709;DHT22;4391;48.678;9.280;2022-08-19T07:21:15;19.00;94.20
8709;DHT22;4391;48.678;9.280;2022-08-19T07:23:43;18.90;99.90
8709;DHT22;4391;48.678;9.280;2022-08-19T07:26:13;18.80;99.90
8709;DHT22;4391;48.678;9.280;2022-08-19T07:28:40;18.70;99.90
8709;DHT22;4391;48.678;9.280;2022-08-19T07:31:10;18.70;99.90
8709;DHT22;4391;48.678;9.280;2022-08-19T07:33:38;18.50;99.90
8709;DHT22;4391;48.678;9.280;2022-08-19T07:36:07;18.50;99.90
8709;DHT22;4391;48.678;9.280;2022-08-19T07:38:39;18.40;99.90
8709;DHT22;4391;48.678;9.280;2022-08-19T07:41:08;18.40;99.90
8709;DHT22;4391;48.678;9.280;2022-08-19T07:43:35;18.30;99.90
8709;DHT22;4391;48.678;9.280;2022-08-19T07:46:01;18.30;99.90
8709;DHT22;4391;48.678;9.280;2022-08-19T07:48:28;18.30;99.90
8709;DHT22;4391;48.678;9.280;2022-08-19T07:50:57;18.30;99.90
8709;DHT22;4391;48.678;9.280;2022-08-19T07:53:25;18.20;99.90
8709;DHT22;4391;48.678;9.280;2022-08-19T07:55:53;18.20;99.90
8709;DHT22;4391;48.678;9.280;2022-08-19T07:58:22;18.20;99.90
8709;DHT22;4391;48.678;9.280;2022-08-19T08:00:50;18.20;99.90
8709;DHT22;4391;48.678;9.280;2022-08-19T08:03:19;18.20;99.90
8709;DHT22;4391;48.678;9.280;2022-08-19T08:06:07;18.20;99.90
8709;DHT22;4391;48.678;9.280;2022-08-19T08:08:51;18.20;99.90
8709;DHT22;4391;48.678;9.280;2022-08-19T08:11:37;18.20;99.90
8709;DHT22;4391;48.678;9.280;2022-08-19T08:14:04;18.20;99.90
8709;DHT22;4391;48.678;9.280;2022-08-19T08:16:34;18.10;99.90
8709;DHT22;4391;48.678;9.280;2022-08-19T08:19:00;18.10;99.90
8709;DHT22;4391;48.678;9.280;2022-08-19T08:21:27;18.10;99.90
8709;DHT22;4391;48.678;9.280;2022-08-19T08:23:54;18.20;99.90
8709;DHT22;4391;48.678;9.280;2022-08-19T08:26:21;18.20;99.90
8709;DHT22;4391;48.678;9.280;2022-08-19T08:28:50;18.20;99.90
8709;DHT22;4391;48.678;9.280;2022-08-19T08:31:17;18.30;99.90
8709;DHT22;4391;48.678;9.280;2022-08-19T08:33:45;18.30;99.90
8709;DHT22;4391;48.678;9.280;2022-08-19T08:36:15;18.40;99.90
8709;DHT22;4391;48.678;9.280;2022-08-19T08:38:43;18.50;99.90
8709;DHT22;4391;48.678;9.280;2022-08-19T08:41:20;18.60;99.90
8709;DHT22;4391;48.678;9.280;2022-08-19T08:43:51;18.60;99.90
8709;DHT22;4391;48.678;9.280;2022-08-19T08:46:23;18.70;99.90
8709;DHT22;4391;48.678;9.280;2022-08-19T08:48:55;18.70;99.90
8709;DHT22;4391;48.678;9.280;2022-08-19T08:51:26;18.70;99.90
8709;DHT22;4391;48.678;9.280;2022-08-19T08:53:55;18.70;99.90
8709;DHT22;4391;48.678;9.280;2022-08-19T08:56:22;18.70;99.90
8709;DHT22;4391;48.678;9.280;2022-08-19T08:58:54;18.70;99.90
8709;DHT22;4391;48.678;9.280;2022-08-19T09:01:24;18.70;99.90
8709;DHT22;4391;48.678;9.280;2022-08-19T09:03:51;18.70;99.90
8709;DHT22;4391;48.678;9.280;2022-08-19T09:06:23;18.70;99.90
8709;DHT22;4391;48.678;9.280;2022-08-19T09:08:58;18.70;99.90
8709;DHT22;4391;48.678;9.280;2022-08-19T09:11:37;18.70;99.90
8709;DHT22;4391;48.678;9.280;2022-08-19T09:14:12;18.70;99.90
8709;DHT22;4391;48.678;9.280;2022-08-19T09:16:39;18.70;99.90
8709;DHT22;4391;48.678;9.280;2022-08-19T09:19:07;18.70;99.90
8709;DHT22;4391;48.678;9.280;2022-08-19T09:21:36;18.70;99.90
8709;DHT22;4391;48.678;9.280;2022-08-19T09:24:04;18.70;99.90
8709;DHT22;4391;48.678;9.280;2022-08-19T09:26:32;18.70;99.90
8709;DHT22;4391;48.678;9.280;2022-08-19T09:29:00;18.70;99.90
8709;DHT22;4391;48.678;9.280;2022-08-19T09:31:29;18.70;99.90
8709;DHT22;4391;48.678;9.280;2022-08-19T09:33:56;18.70;99.90
8709;DHT22;4391;48.678;9.280;2022-08-19T09:36:25;18.70;99.90
8709;DHT22;4391;48.678;9.280;2022-08-19T09:38:55;18.70;99.90
8709;DHT22;4391;48.678;9.280;2022-08-19T09:41:24;18.70;99.90
8709;DHT22;4391;48.678;9.280;2022-08-19T09:43:53;18.70;99.90
8709;DHT22;4391;48.678;9.280;2022-08-19T09:46:22;18.70;99.90
8709;DHT22;4391;48.678;9.280;2022-08-19T09:48:51;18.70;99.90
8709;DHT22;4391;48.678;9.280;2022-08-19T09:51:20;18.70;99.90
8709;DHT22;4391;48.678;9.280;2022-08-19T09:53:48;18.70;99.90
8709;DHT22;4391;48.678;9.280;2022-08-19T09:56:18;18.70;99.90
8709;DHT22;4391;48.678;9.280;2022-08-19T09:58:45;18.70;99.90
8709;DHT22;4391;48.678;9.280;2022-08-19T10:01:18;18.80;99.90
8709;DHT22;4391;48.678;9.280;2022-08-19T10:03:47;18.90;99.90
8709;DHT22;4391;48.678;9.280;2022-08-19T10:06:17;18.90;99.90
8709;DHT22;4391;48.678;9.280;2022-08-19T10:08:45;19.00;99.90
8709;DHT22;4391;48.678;9.280;2022-08-19T10:11:12;19.00;99.90
8709;DHT22;4391;48.678;9.280;2022-08-19T10:13:42;19.00;99.90
8709;DHT22;4391;48.678;9.280;2022-08-19T10:16:11;19.00;99.90
8709;DHT22;4391;48.678;9.280;2022-08-19T10:18:39;19.00;99.90
8709;DHT22;4391;48.678;9.280;2022-08-19T10:21:10;19.00;99.90
8709;DHT22;4391;48.678;9.280;2022-08-19T10:23:40;19.00;99.90
8709;DHT22;4391;48.678;9.280;2022-08-19T10:26:12;19.00;99.90
8709;DHT22;4391;48.678;9.280;2022-08-19T10:28:39;18.90;99.90
8709;DHT22;4391;48.678;9.280;2022-08-19T10:31:07;18.90;99.90
8709;DHT22;4391;48.678;9.280;2022-08-19T10:33:35;18.90;99.90
8709;DHT22;4391;48.678;9.280;2022-08-19T10:36:05;19.00;99.90
8709;DHT22;4391;48.678;9.280;2022-08-19T10:38:32;18.90;99.90
8709;DHT22;4391;48.678;9.280;2022-08-19T10:41:08;19.00;99.90
8709;DHT22;4391;48.678;9.280;2022-08-19T10:43:35;19.00;99.90
8709;DHT22;4391;48.678;9.280;2022-08-19T10:46:04;18.80;99.90
8709;DHT22;4391;48.678;9.280;2022-08-19T10:48:31;18.80;99.90
8709;DHT22;4391;48.678;9.280;2022-08-19T10:50:58;18.70;99.90
8709;DHT22;4391;48.678;9.280;2022-08-19T10:53:43;18.70;99.90
8709;DHT22;4391;48.678;9.280;2022-08-19T10:56:11;18.80;99.90
8709;DHT22;4391;48.678;9.280;2022-08-19T10:58:55;18.80;99.90
8709;DHT22;4391;48.678;9.280;2022-08-19T11:01:23;18.80;99.90
8709;DHT22;4391;48.678;9.280;2022-08-19T11:03:50;18.90;99.90
8709;DHT22;4391;48.678;9.280;2022-08-19T11:06:18;18.90;99.90
8709;DHT22;4391;48.678;9.280;2022-08-19T11:08:45;18.80;99.90
8709;DHT22;4391;48.678;9.280;2022-08-19T11:11:13;18.80;99.90
8709;DHT22;4391;48.678;9.280;2022-08-19T11:13:41;18.80;99.90
8709;DHT22;4391;48.678;9.280;2022-08-19T11:16:09;18.80;99.90
8709;DHT22;4391;48.678;9.280;2022-08-19T11:18:41;18.70;99.90
8709;DHT22;4391;48.678;9.280;2022-08-19T11:21:14;18.60;99.90
8709;DHT22;4391;48.678;9.280;2022-08-19T11:23:42;18.60;99.90
8709;DHT22;4391;48.678;9.280;2022-08-19T11:26:10;18.40;99.90
8709;DHT22;4391;48.678;9.280;2022-08-19T11:28:38;18.40;99.90
8709;DHT22;4391;48.678;9.280;2022-08-19T11:31:10;18.40;99.90
8709;DHT22;4391;48.678;9.280;2022-08-19T11:33:38;18.40;99.90
8709;DHT22;4391;48.678;9.280;2022-08-19T11:36:05;18.40;99.90
8709;DHT22;4391;48.678;9.280;2022-08-19T11:38:33;18.40;99.90
8709;DHT22;4391;48.678;9.280;2022-08-19T11:41:03;18.40;99.90
8709;DHT22;4391;48.678;9.280;2022-08-19T11:43:30;18.30;99.90
8709;DHT22;4391;48.678;9.280;2022-08-19T11:45:58;18.20;99.90
8709;DHT22;4391;48.678;9.280;2022-08-19T11:48:26;18.10;99.90
8709;DHT22;4391;48.678;9.280;2022-08-19T11:50:53;18.20;99.90
8709;DHT22;4391;48.678;9.280;2022-08-19T11:53:22;18.20;99.90
8709;DHT22;4391;48.678;9.280;2022-08-19T11:55:50;18.20;99.90
8709;DHT22;4391;48.678;9.280;2022-08-19T11:58:19;18.20;99.90
8709;DHT22;4391;48.678;9.280;2022-08-19T12:00:46;18.20;99.90
8709;DHT22;4391;48.678;9.280;2022-08-19T12:03:14;18.30;99.90
8709;DHT22;4391;48.678;9.280;2022-08-19T12:05:41;18.30;99.90
8709;DHT22;4391;48.678;9.280;2022-08-19T12:08:10;18.30;99.90
8709;DHT22;4391;48.678;9.280;2022-08-19T12:10:38;18.30;99.90
8709;DHT22;4391;48.678;9.280;2022-08-19T12:13:06;18.30;99.90
8709;DHT22;4391;48.678;9.280;2022-08-19T12:15:35;18.30;99.90
8709;DHT22;4391;48.678;9.280;2022-08-19T12:18:03;18.30;99.90
8709;DHT22;4391;48.678;9.280;2022-08-19T12:20:35;18.30;99.90
8709;DHT22;4391;48.678;9.280;2022-08-19T12:23:02;18.20;99.90
8709;DHT22;4391;48.678;9.280;2022-08-19T12:25:29;18.30;99.90
8709;DHT22;4391;48.678;9.280;2022-08-19T12:27:56;18.30;99.90
8709;DHT22;4391;48.678;9.280;2022-08-19T12:30:23;18.30;99.90
8709;DHT22;4391;48.678;9.280;2022-08-19T12:32:50;18.20;99.90
8709;DHT22;4391;48.678;9.280;2022-08-19T12:35:18;18.20;99.90
8709;DHT22;4391;48.678;9.280;2022-08-19T12:37:47;18.30;99.90
8709;DHT22;4391;48.678;9.280;2022-08-19T12:40:14;18.30;99.90
8709;DHT22;4391;48.678;9.280;2022-08-19T12:42:43;18.30;99.90
8709;DHT22;4391;48.678;9.280;2022-08-19T12:45:10;18.30;99.90
8709;DHT22;4391;48.678;9.280;2022-08-19T12:47:37;18.30;99.90
8709;DHT22;4391;48.678;9.280;2022-08-19T12:50:05;18.30;99.90
8709;DHT22;4391;48.678;9.280;2022-08-19T12:52:34;18.30;99.90
8709;DHT22;4391;48.678;9.280;2022-08-19T12:55:05;18.30;99.90
8709;DHT22;4391;48.678;9.280;2022-08-19T12:57:32;18.30;99.90
8709;DHT22;4391;48.678;9.280;2022-08-19T13:00:05;18.20;99.90
8709;DHT22;4391;48.678;9.280;2022-08-19T13:02:37;18.20;99.90
8709;DHT22;4391;48.678;9.280;2022-08-19T13:05:06;18.20;99.90
8709;DHT22;4391;48.678;9.280;2022-08-19T13:07:34;18.30;99.90
8709;DHT22;4391;48.678;9.280;2022-08-19T13:10:02;18.30;99.90
8709;DHT22;4391;48.678;9.280;2022-08-19T13:12:29;18.30;99.90
8709;DHT22;4391;48.678;9.280;2022-08-19T13:14:56;18.40;99.90
8709;DHT22;4391;48.678;9.280;2022-08-19T13:17:23;18.40;99.90
8709;DHT22;4391;48.678;9.280;2022-08-19T13:19:49;18.40;99.90
8709;DHT22;4391;48.678;9.280;2022-08-19T13:22:17;18.40;99.90
8709;DHT22;4391;48.678;9.280;2022-08-19T13:24:44;18.50;99.90
8709;DHT22;4391;48.678;9.280;2022-08-19T13:27:12;18.40;99.90
8709;DHT22;4391;48.678;9.280;2022-08-19T13:29:39;18.40;99.90
8709;DHT22;4391;48.678;9.280;2022-08-19T13:32:24;18.40;99.90
8709;DHT22;4391;48.678;9.280;2022-08-19T13:35:08;18.40;99.90
8709;DHT22;4391;48.678;9.280;2022-08-19T13:37:35;18.40;99.90
8709;DHT22;4391;48.678;9.280;2022-08-19T13:40:10;18.40;99.90
8709;DHT22;4391;48.678;9.280;2022-08-19T13:42:39;18.40;99.90
8709;DHT22;4391;48.678;9.280;2022-08-19T13:45:07;18.40;99.90
8709;DHT22;4391;48.678;9.280;2022-08-19T13:47:34;18.40;99.90
8709;DHT22;4391;48.678;9.280;2022-08-19T13:50:06;18.40;99.90
8709;DHT22;4391;48.678;9.280;2022-08-19T13:52:33;18.40;99.90
8709;DHT22;4391;48.678;9.280;2022-08-19T13:55:00;18.40;99.90
8709;DHT22;4391;48.678;9.280;2022-08-19T13:57:27;18.30;99.90
8709;DHT22;4391;48.678;9.280;2022-08-19T13:59:55;18.40;99.90
8709;DHT22;4391;48.678;9.280;2022-08-19T14:02:21;18.30;99.90
8709;DHT22;4391;48.678;9.280;2022-08-19T14:04:48;18.40;99.90
8709;DHT22;4391;48.678;9.280;2022-08-19T14:07:15;18.40;99.90
8709;DHT22;4391;48.678;9.280;2022-08-19T14:09:42;18.30;99.90
8709;DHT22;4391;48.678;9.280;2022-08-19T14:12:08;18.30;99.90
8709;DHT22;4391;48.678;9.280;2022-08-19T14:14:36;18.30;99.90
8709;DHT22;4391;48.678;9.280;2022-08-19T14:17:07;18.30;99.90
8709;DHT22;4391;48.678;9.280;2022-08-19T14:19:34;18.20;99.90
8709;DHT22;4391;48.678;9.280;2022-08-19T14:22:01;18.20;99.90
8709;DHT22;4391;48.678;9.280;2022-08-19T14:24:28;18.20;99.90
8709;DHT22;4391;48.678;9.280;2022-08-19T14:26:55;18.20;99.90
8709;DHT22;4391;48.678;9.280;2022-08-19T14:29:21;18.20;99.90
8709;DHT22;4391;48.678;9.280;2022-08-19T14:31:48;18.20;99.90
8709;DHT22;4391;48.678;9.280;2022-08-19T14:34:16;18.20;99.90
8709;DHT22;4391;48.678;9.280;2022-08-19T14:36:43;18.20;99.90
8709;DHT22;4391;48.678;9.280;2022-08-19T14:39:10;18.20;99.90
8709;DHT22;4391;48.678;9.280;2022-08-19T14:41:40;18.20;99.90
8709;DHT22;4391;48.678;9.280;2022-08-19T14:44:08;18.20;99.90
8709;DHT22;4391;48.678;9.280;2022-08-19T14:46:38;18.20;99.90
8709;DHT22;4391;48.678;9.280;2022-08-19T14:49:06;18.10;99.90
8709;DHT22;4391;48.678;9.280;2022-08-19T14:51:34;18.10;99.90
8709;DHT22;4391;48.678;9.280;2022-08-19T14:54:00;18.10;99.90
8709;DHT22;4391;48.678;9.280;2022-08-19T14:56:29;18.20;99.90
8709;DHT22;4391;48.678;9.280;2022-08-19T14:58:56;18.20;99.90
8709;DHT22;4391;48.678;9.280;2022-08-19T15:01:26;18.20;99.90
8709;DHT22;4391;48.678;9.280;2022-08-19T15:03:53;18.30;99.90
8709;DHT22;4391;48.678;9.280;2022-08-19T15:06:21;18.40;99.90
8709;DHT22;4391;48.678;9.280;2022-08-19T15:08:50;18.40;99.90
8709;DHT22;4391;48.678;9.280;2022-08-19T15:11:19;18.50;99.90
8709;DHT22;4391;48.678;9.280;2022-08-19T15:13:48;18.60;99.90
8709;DHT22;4391;48.678;9.280;2022-08-19T15:16:15;18.60;99.90
8709;DHT22;4391;48.678;9.280;2022-08-19T15:18:42;18.60;99.90
8709;DHT22;4391;48.678;9.280;2022-08-19T15:21:10;18.60;99.90
8709;DHT22;4391;48.678;9.280;2022-08-19T15:23:39;18.70;99.90
8709;DHT22;4391;48.678;9.280;2022-08-19T15:26:07;18.70;99.90
8709;DHT22;4391;48.678;9.280;2022-08-19T15:28:35;18.80;99.90
8709;DHT22;4391;48.678;9.280;2022-08-19T15:31:03;18.80;99.90
8709;DHT22;4391;48.678;9.280;2022-08-19T15:33:31;18.90;99.90
8709;DHT22;4391;48.678;9.280;2022-08-19T15:36:01;19.00;99.90
8709;DHT22;4391;48.678;9.280;2022-08-19T15:38:31;19.20;99.90
8709;DHT22;4391;48.678;9.280;2022-08-19T15:40:59;19.30;99.90
8709;DHT22;4391;48.678;9.280;2022-08-19T15:43:48;19.60;99.90
8709;DHT22;4391;48.678;9.280;2022-08-19T15:46:16;19.80;99.90
8709;DHT22;4391;48.678;9.280;2022-08-19T15:48:44;20.00;99.90
8709;DHT22;4391;48.678;9.280;2022-08-19T15:51:11;20.30;99.90
8709;DHT22;4391;48.678;9.280;2022-08-19T15:53:38;20.50;99.90
8709;DHT22;4391;48.678;9.280;2022-08-19T15:56:06;20.60;99.90
8709;DHT22;4391;48.678;9.280;2022-08-19T15:58:33;20.80;99.90
8709;DHT22;4391;48.678;9.280;2022-08-19T16:01:18;21.10;99.90
8709;DHT22;4391;48.678;9.280;2022-08-19T16:04:03;21.10;79.60
8709;DHT22;4391;48.678;9.280;2022-08-19T16:06:50;20.90;82.50
8709;DHT22;4391;48.678;9.280;2022-08-19T16:09:19;20.80;81.20
8709;DHT22;4391;48.678;9.280;2022-08-19T16:11:46;20.70;94.90